Time;durP1;ratioP1;P1;durP2;ratioP2;P2;SDS_P1;SDS_P2;PMS_P1;PMS_P2;Temp;Humidity;BMP_temperature;BMP_pressure;BME280_temperature;BME280_humidity;BME280_pressure;Samples;Min_cycle;Max_cycle;Signal;HPM_P1;HPM_P2
2022/04/04 00:00:05;;;;;;;6.88;3.40;;;3.90;99.90;;;;;;6247975;22;20078;-72
2022/04/04 00:02:30;;;;;;;8.30;3.42;;;3.90;99.90;;;;;;6248057;22;20023;-75
2022/04/04 00:04:56;;;;;;;17.42;5.35;;;3.90;99.90;;;;;;6247496;22;20397;-73
2022/04/04 00:07:22;;;;;;;7.47;3.85;;;3.90;99.90;;;;;;6251418;22;20813;-73
2022/04/04 00:09:48;;;;;;;9.10;4.32;;;4.00;99.90;;;;;;6278117;22;20042;-74
2022/04/04 00:12:14;;;;;;;7.97;3.35;;;4.00;99.90;;;;;;6273759;22;20034;-74
2022/04/04 00:14:40;;;;;;;12.05;4.60;;;4.00;99.90;;;;;;6273485;22;20097;-74
2022/04/04 00:17:07;;;;;;;9.57;3.95;;;4.00;99.90;;;;;;6223031;22;20020;-74
2022/04/04 00:19:34;;;;;;;5.72;3.03;;;4.10;99.90;;;;;;6274981;22;20506;-74
2022/04/04 00:22:03;;;;;;;8.90;4.00;;;4.10;99.90;;;;;;6275510;22;20032;-74
2022/04/04 00:24:29;;;;;;;7.15;3.53;;;4.10;99.90;;;;;;6273296;22;20128;-75
2022/04/04 00:26:55;;;;;;;8.48;3.80;;;4.10;99.90;;;;;;6274072;22;20492;-74
2022/04/04 00:29:21;;;;;;;12.27;3.50;;;4.10;99.90;;;;;;6247835;22;20031;-73
2022/04/04 00:31:47;;;;;;;7.28;3.65;;;4.10;99.90;;;;;;6273210;22;20016;-74
2022/04/04 00:34:13;;;;;;;6.43;3.08;;;4.20;99.90;;;;;;6273055;22;20032;-74
2022/04/04 00:36:40;;;;;;;7.30;3.42;;;4.20;99.90;;;;;;6273254;22;20011;-74
2022/04/04 00:39:06;;;;;;;9.23;3.40;;;4.20;99.90;;;;;;6222562;22;20032;-74
2022/04/04 00:41:32;;;;;;;6.05;3.40;;;4.30;99.90;;;;;;6247415;22;20122;-74
2022/04/04 00:44:04;;;;;;;8.95;3.40;;;4.20;99.90;;;;;;6247339;22;20109;-73
2022/04/04 00:46:34;;;;;;;8.82;3.92;;;4.30;99.90;;;;;;6249352;22;20031;-73
2022/04/04 00:49:00;;;;;;;8.63;3.80;;;4.30;99.90;;;;;;6247986;22;20020;-74
2022/04/04 00:51:25;;;;;;;13.57;3.97;;;4.30;99.90;;;;;;6273114;22;20023;-72
2022/04/04 00:53:51;;;;;;;10.00;4.13;;;4.30;99.90;;;;;;6272905;22;20085;-74
2022/04/04 00:56:21;;;;;;;9.07;3.75;;;4.40;99.90;;;;;;6248165;22;20485;-73
2022/04/04 00:58:48;;;;;;;8.52;4.43;;;4.40;99.90;;;;;;6272849;22;20531;-73
2022/04/04 01:01:14;;;;;;;11.30;5.00;;;4.50;99.90;;;;;;6272381;22;20023;-73
2022/04/04 01:03:40;;;;;;;10.02;4.82;;;4.50;99.90;;;;;;6272924;22;20030;-73
2022/04/04 01:06:06;;;;;;;9.20;4.57;;;4.50;99.90;;;;;;6272847;22;20031;-74
2022/04/04 01:08:32;;;;;;;7.75;4.63;;;4.50;99.90;;;;;;6272981;22;20089;-74
2022/04/04 01:11:01;;;;;;;8.60;4.57;;;4.60;99.90;;;;;;6273581;22;20026;-74
2022/04/04 01:13:49;;;;;;;10.63;5.20;;;4.60;99.90;;;;;;6273006;22;20101;-73
2022/04/04 01:16:18;;;;;;;16.00;5.93;;;4.60;99.90;;;;;;6248377;22;20077;-74
2022/04/04 01:18:45;;;;;;;11.55;6.35;;;4.60;99.90;;;;;;6247335;22;20390;-74
2022/04/04 01:21:11;;;;;;;10.68;5.40;;;4.70;99.90;;;;;;6273115;22;20016;-74
2022/04/04 01:23:42;;;;;;;13.95;7.18;;;4.70;99.90;;;;;;6273159;22;20034;-75
2022/04/04 01:26:11;;;;;;;17.00;8.25;;;4.70;99.90;;;;;;6247203;22;20359;-74
2022/04/04 01:28:38;;;;;;;13.85;7.38;;;4.80;99.90;;;;;;6272467;22;20023;-74
2022/04/04 01:31:07;;;;;;;13.60;7.32;;;4.80;99.90;;;;;;6247371;22;20030;-74
2022/04/04 01:33:33;;;;;;;12.45;6.70;;;4.80;99.90;;;;;;6246954;22;20023;-73
2022/04/04 01:36:00;;;;;;;13.57;7.65;;;4.90;99.90;;;;;;6272706;22;20024;-74
2022/04/04 01:38:47;;;;;;;17.95;8.80;;;4.90;99.90;;;;;;6272436;22;20352;-73
2022/04/04 01:41:30;;;;;;;18.65;8.93;;;5.00;99.90;;;;;;6184738;23;20056;-74
2022/04/04 01:43:58;;;;;;;15.20;8.43;;;5.00;99.90;;;;;;6160315;23;20031;-74
2022/04/04 01:46:24;;;;;;;16.75;9.63;;;5.10;99.90;;;;;;6185109;23;20028;-72
2022/04/04 01:48:59;;;;;;;15.48;9.43;;;5.10;99.90;;;;;;6185054;23;20492;-74
2022/04/04 01:51:35;;;;;;;21.30;9.38;;;5.10;99.90;;;;;;6210226;23;20112;-74
2022/04/04 01:54:01;;;;;;;18.83;9.40;;;5.20;99.90;;;;;;6159917;23;20020;-73
2022/04/04 01:56:28;;;;;;;15.90;9.13;;;5.20;99.90;;;;;;6184518;23;20480;-74
2022/04/04 01:58:55;;;;;;;17.10;10.18;;;5.20;99.90;;;;;;6160234;23;20070;-73
2022/04/04 02:01:22;;;;;;;15.73;9.15;;;5.30;99.90;;;;;;6184244;23;20024;-73
2022/04/04 02:04:12;;;;;;;16.55;9.80;;;5.30;99.90;;;;;;6185329;23;20044;-73
2022/04/04 02:06:39;;;;;;;21.20;9.52;;;5.30;99.90;;;;;;6106050;23;20035;-73
2022/04/04 02:09:06;;;;;;;17.38;9.55;;;5.30;99.90;;;;;;6180490;23;20053;-74
2022/04/04 02:11:32;;;;;;;14.52;10.10;;;5.30;99.90;;;;;;6179911;23;20021;-73
2022/04/04 02:14:02;;;;;;;17.52;10.93;;;5.40;99.90;;;;;;6155518;23;20027;-73
2022/04/04 02:16:29;;;;;;;23.17;10.95;;;5.40;99.90;;;;;;6179759;23;20028;-73
2022/04/04 02:18:55;;;;;;;18.17;10.75;;;5.40;99.90;;;;;;6155525;23;20409;-73
2022/04/04 02:21:24;;;;;;;18.40;11.13;;;5.50;99.90;;;;;;6155897;23;20369;-74
2022/04/04 02:23:51;;;;;;;19.77;11.35;;;5.50;99.90;;;;;;6154884;23;20101;-74
2022/04/04 02:26:17;;;;;;;20.45;11.55;;;5.50;99.90;;;;;;6213664;23;20020;-73
2022/04/04 02:28:43;;;;;;;21.25;11.95;;;5.50;99.90;;;;;;6213816;23;20020;-74
2022/04/04 02:31:08;;;;;;;20.40;10.65;;;5.60;99.90;;;;;;6214716;23;20102;-72
2022/04/04 02:33:35;;;;;;;19.88;11.57;;;5.60;99.90;;;;;;6214590;23;20073;-74
2022/04/04 02:36:00;;;;;;;21.25;11.48;;;5.60;99.90;;;;;;6214723;23;20078;-72
2022/04/04 02:38:28;;;;;;;17.83;10.35;;;5.60;99.90;;;;;;6261257;22;20024;-73
2022/04/04 02:40:56;;;;;;;19.13;11.07;;;5.60;99.90;;;;;;6245684;22;20030;-74
2022/04/04 02:43:23;;;;;;;20.38;12.10;;;5.70;99.90;;;;;;6246979;22;20051;-74
2022/04/04 02:45:49;;;;;;;18.92;10.05;;;5.60;99.90;;;;;;6246570;22;20023;-73
2022/04/04 02:48:16;;;;;;;33.97;12.73;;;5.70;99.90;;;;;;6272608;22;20042;-74
2022/04/04 02:50:46;;;;;;;19.38;10.55;;;5.70;99.90;;;;;;6274364;22;20173;-73
2022/04/04 02:53:13;;;;;;;18.70;11.45;;;5.70;99.90;;;;;;6272059;22;20020;-73
2022/04/04 02:58:24;;;;;;;24.15;12.95;;;5.60;99.90;;;;;;6271966;22;20482;-74
2022/04/04 03:00:53;;;;;;;21.65;12.75;;;5.60;99.90;;;;;;6271992;22;20024;-74
2022/04/04 03:03:19;;;;;;;25.92;14.05;;;5.60;99.90;;;;;;6272196;22;20078;-74
2022/04/04 03:05:54;;;;;;;22.20;13.85;;;5.50;99.90;;;;;;6272087;22;20023;-74
2022/04/04 03:08:23;;;;;;;27.48;15.15;;;5.50;99.90;;;;;;6248017;22;20030;-73
2022/04/04 03:10:52;;;;;;;20.77;13.15;;;5.40;99.90;;;;;;6272172;22;20020;-73
2022/04/04 03:13:26;;;;;;;27.25;15.35;;;5.40;99.90;;;;;;6273752;22;20038;-73
2022/04/04 03:15:55;;;;;;;25.05;14.63;;;5.40;99.90;;;;;;6272160;22;20494;-74
2022/04/04 03:18:21;;;;;;;24.85;14.63;;;5.30;99.90;;;;;;6271915;22;20031;-73
2022/04/04 03:20:48;;;;;;;29.77;17.05;;;5.30;99.90;;;;;;6272607;22;20454;-73
2022/04/04 03:23:16;;;;;;;23.73;14.07;;;5.20;99.90;;;;;;6271845;22;20092;-73
2022/04/04 03:25:42;;;;;;;25.38;14.10;;;5.20;99.90;;;;;;6272989;22;20024;-72
2022/04/04 03:28:08;;;;;;;24.50;13.48;;;5.30;99.90;;;;;;6274357;22;20371;-73
2022/04/04 03:30:34;;;;;;;26.77;14.10;;;5.30;99.90;;;;;;6273220;22;20463;-72
2022/04/04 03:33:00;;;;;;;25.90;13.25;;;5.30;99.90;;;;;;6273241;22;20051;-73
2022/04/04 03:35:28;;;;;;;24.48;12.65;;;5.30;99.90;;;;;;6273798;22;20026;-73
2022/04/04 03:37:55;;;;;;;23.48;12.93;;;5.30;99.90;;;;;;6248032;22;20449;-74
2022/04/04 03:40:21;;;;;;;24.50;11.70;;;5.30;99.90;;;;;;6273844;22;20145;-74
2022/04/04 03:42:51;;;;;;;23.40;11.40;;;5.30;99.90;;;;;;6273109;22;20027;-73
2022/04/04 03:45:19;;;;;;;21.02;10.63;;;5.30;99.90;;;;;;6273749;22;20024;-73
2022/04/04 03:47:48;;;;;;;20.98;9.15;;;5.30;99.90;;;;;;6248668;22;20336;-74
2022/04/04 03:50:16;;;;;;;15.52;8.50;;;5.40;99.90;;;;;;6273815;22;20489;-74
2022/04/04 03:52:53;;;;;;;18.83;7.90;;;5.40;99.90;;;;;;6275782;22;20077;-74
2022/04/04 03:55:29;;;;;;;17.80;9.10;;;5.40;99.90;;;;;;6275306;22;20024;-75
2022/04/04 03:57:56;;;;;;;17.13;8.43;;;5.40;99.90;;;;;;6224578;22;20028;-74
2022/04/04 04:00:25;;;;;;;22.27;8.75;;;5.40;99.90;;;;;;6274115;22;20024;-75
2022/04/04 04:02:54;;;;;;;19.02;8.80;;;5.30;99.90;;;;;;6223326;22;20026;-75
2022/04/04 04:05:21;;;;;;;23.33;9.60;;;5.30;99.90;;;;;;6273833;22;20098;-75
2022/04/04 04:07:54;;;;;;;17.08;8.73;;;5.30;99.90;;;;;;6273851;22;20024;-74
2022/04/04 04:10:24;;;;;;;20.95;10.25;;;5.30;99.90;;;;;;6249602;22;20023;-75
2022/04/04 04:12:53;;;;;;;20.83;10.82;;;5.20;99.90;;;;;;6275768;22;20020;-75
2022/04/04 04:15:25;;;;;;;19.88;10.70;;;5.20;99.90;;;;;;6276301;22;20020;-75
2022/04/04 04:17:52;;;;;;;20.58;10.20;;;5.20;99.90;;;;;;6274163;22;20410;-73
2022/04/04 04:20:23;;;;;;;20.00;10.98;;;5.20;99.90;;;;;;6275014;22;20103;-73
2022/04/04 04:23:01;;;;;;;21.92;11.00;;;5.10;99.90;;;;;;6273840;22;20030;-74
2022/04/04 04:25:29;;;;;;;25.42;12.43;;;5.20;99.90;;;;;;6274092;22;20016;-75
2022/04/04 04:28:05;;;;;;;22.38;11.40;;;5.10;99.90;;;;;;6248113;22;20399;-74
2022/04/04 04:30:36;;;;;;;24.33;13.60;;;5.10;99.90;;;;;;6273256;22;20030;-73
2022/04/04 04:33:03;;;;;;;24.52;13.00;;;5.10;99.90;;;;;;6273318;22;20403;-73
2022/04/04 04:35:29;;;;;;;30.55;13.13;;;5.00;99.90;;;;;;6273135;22;20019;-74
2022/04/04 04:37:55;;;;;;;23.23;12.20;;;5.10;99.90;;;;;;6247961;22;20031;-75
2022/04/04 04:40:22;;;;;;;30.50;12.23;;;5.10;99.90;;;;;;6272765;22;20016;-74
2022/04/04 04:42:50;;;;;;;22.52;11.32;;;5.00;99.90;;;;;;6221811;22;20467;-74
2022/04/04 04:45:17;;;;;;;21.00;11.15;;;5.00;99.90;;;;;;6247902;22;20015;-74
2022/04/04 04:47:44;;;;;;;19.48;10.60;;;5.00;99.90;;;;;;6272457;22;20023;-74
2022/04/04 04:50:23;;;;;;;22.30;10.35;;;5.00;99.90;;;;;;6222446;22;20030;-74
2022/04/04 04:52:50;;;;;;;22.67;9.02;;;5.00;99.90;;;;;;6272185;22;20066;-74
2022/04/04 04:55:18;;;;;;;12.35;7.75;;;4.90;99.90;;;;;;6273010;22;20028;-74
2022/04/04 04:57:45;;;;;;;17.73;8.50;;;4.90;99.90;;;;;;6247269;22;20063;-74
2022/04/04 05:00:14;;;;;;;16.48;8.82;;;4.90;99.90;;;;;;6274569;22;20051;-74
2022/04/04 05:02:40;;;;;;;18.50;8.60;;;4.90;99.90;;;;;;6274424;22;20061;-73
2022/04/04 05:05:06;;;;;;;18.13;9.02;;;4.80;99.90;;;;;;6273583;22;20020;-74
2022/04/04 05:07:34;;;;;;;15.20;7.40;;;4.80;99.90;;;;;;6272987;22;20028;-75
2022/04/04 05:10:00;;;;;;;25.13;9.38;;;4.80;99.90;;;;;;6273159;22;20015;-74
2022/04/04 05:12:26;;;;;;;18.50;7.95;;;4.80;99.90;;;;;;6247296;22;20020;-74
2022/04/04 05:14:54;;;;;;;14.43;7.15;;;4.80;99.90;;;;;;6273027;22;20498;-74
2022/04/04 05:17:19;;;;;;;13.35;5.95;;;4.80;99.90;;;;;;6247401;22;20452;-73
2022/04/04 05:19:46;;;;;;;10.48;4.72;;;4.70;99.90;;;;;;6273022;22;20042;-73
2022/04/04 05:22:14;;;;;;;10.75;4.68;;;4.70;99.90;;;;;;6245916;22;20051;-74
2022/04/04 05:24:40;;;;;;;10.65;5.18;;;4.70;99.90;;;;;;6272417;22;20019;-73
2022/04/04 05:27:06;;;;;;;10.65;4.65;;;4.60;99.90;;;;;;6274637;22;20154;-73
2022/04/04 05:29:32;;;;;;;13.65;5.47;;;4.60;99.90;;;;;;6247294;22;20055;-74
2022/04/04 05:31:58;;;;;;;25.85;9.02;;;4.50;99.90;;;;;;6247285;22;20027;-73
2022/04/04 05:34:27;;;;;;;11.15;4.90;;;4.50;99.90;;;;;;6247236;22;20026;-74
2022/04/04 05:36:54;;;;;;;11.55;4.22;;;4.40;99.90;;;;;;6247133;22;20089;-74
2022/04/04 05:39:20;;;;;;;15.88;5.38;;;4.40;99.90;;;;;;6246621;22;20032;-74
2022/04/04 05:41:52;;;;;;;17.73;5.13;;;4.40;99.90;;;;;;6247200;22;20073;-75
2022/04/04 05:44:18;;;;;;;14.18;4.53;;;4.40;99.90;;;;;;6247164;22;20351;-75
2022/04/04 05:46:46;;;;;;;9.07;3.65;;;4.40;99.90;;;;;;6247089;22;20098;-74
2022/04/04 05:49:16;;;;;;;13.07;3.72;;;4.40;99.90;;;;;;6247001;22;20020;-75
2022/04/04 05:51:43;;;;;;;8.88;3.25;;;4.30;99.90;;;;;;6246420;22;20030;-74
2022/04/04 05:54:09;;;;;;;9.18;2.70;;;4.30;99.90;;;;;;6246784;22;20020;-75
2022/04/04 05:56:37;;;;;;;9.88;3.20;;;4.30;99.90;;;;;;6272002;22;20038;-75
2022/04/04 05:59:07;;;;;;;10.98;3.67;;;4.30;99.90;;;;;;6244153;22;20455;-76
2022/04/04 06:01:33;;;;;;;8.90;3.65;;;4.30;99.90;;;;;;6247410;22;20529;-74
2022/04/04 06:03:59;;;;;;;7.45;2.80;;;4.30;99.90;;;;;;6272742;22;20023;-75
2022/04/04 06:06:25;;;;;;;5.53;2.28;;;4.30;99.90;;;;;;6272934;22;20103;-76
2022/04/04 06:08:50;;;;;;;8.85;2.85;;;4.30;99.90;;;;;;6272535;22;20020;-76
2022/04/04 06:11:16;;;;;;;11.50;3.10;;;4.30;99.90;;;;;;6274377;22;20473;-75
2022/04/04 06:13:44;;;;;;;10.73;3.40;;;4.30;99.90;;;;;;6272264;22;20031;-74
2022/04/04 06:16:10;;;;;;;16.13;4.28;;;4.40;99.90;;;;;;6273404;22;20023;-73
2022/04/04 06:18:35;;;;;;;7.35;3.90;;;4.30;99.90;;;;;;6272340;22;20038;-75
2022/04/04 06:21:02;;;;;;;8.13;3.47;;;4.40;99.90;;;;;;6272239;22;20027;-73
2022/04/04 06:23:33;;;;;;;9.27;4.38;;;4.40;99.90;;;;;;6274169;22;20394;-74
2022/04/04 06:26:01;;;;;;;12.60;4.80;;;4.40;99.90;;;;;;6246268;22;20023;-74
2022/04/04 06:28:29;;;;;;;10.73;5.32;;;4.50;99.90;;;;;;6272053;22;20035;-73
2022/04/04 06:30:57;;;;;;;13.05;4.60;;;4.50;99.90;;;;;;6272269;22;20020;-73
2022/04/04 06:33:23;;;;;;;15.73;5.78;;;4.50;99.90;;;;;;6273808;22;20388;-74
2022/04/04 06:35:52;;;;;;;13.55;6.22;;;4.50;99.90;;;;;;6272313;22;20452;-74
2022/04/04 06:38:18;;;;;;;13.52;6.53;;;4.50;99.90;;;;;;6273755;22;20386;-74
2022/04/04 06:40:45;;;;;;;11.98;6.57;;;4.60;99.90;;;;;;6246915;22;20030;-73
2022/04/04 06:43:11;;;;;;;16.52;7.25;;;4.60;99.90;;;;;;6246214;22;20094;-75
2022/04/04 06:45:38;;;;;;;17.38;7.05;;;4.60;99.90;;;;;;6246626;22;20051;-73
2022/04/04 06:48:05;;;;;;;14.32;8.07;;;4.60;99.90;;;;;;6196286;22;20109;-73
2022/04/04 06:50:40;;;;;;;19.13;9.60;;;4.70;99.90;;;;;;6248899;22;20436;-73
2022/04/04 06:53:07;;;;;;;21.23;10.32;;;4.70;99.90;;;;;;6272660;22;20347;-73
2022/04/04 06:55:33;;;;;;;25.20;11.88;;;4.80;99.90;;;;;;6271954;22;20020;-73
2022/04/04 06:58:00;;;;;;;22.80;11.27;;;4.80;99.90;;;;;;6272046;22;20102;-74
2022/04/04 07:00:29;;;;;;;23.05;11.98;;;4.90;99.90;;;;;;6221995;22;20032;-73
2022/04/04 07:02:58;;;;;;;30.23;12.50;;;5.00;99.90;;;;;;6248398;22;20366;-74
2022/04/04 07:05:32;;;;;;;30.60;12.73;;;5.00;99.90;;;;;;6275566;22;20351;-74
2022/04/04 07:07:58;;;;;;;32.60;14.25;;;5.10;99.90;;;;;;6248599;22;20031;-74
2022/04/04 07:10:24;;;;;;;23.33;12.00;;;5.10;99.90;;;;;;6274644;22;20024;-73
2022/04/04 07:12:49;;;;;;;21.48;10.55;;;5.10;99.90;;;;;;6275952;22;20035;-74
2022/04/04 07:15:15;;;;;;;21.63;10.20;;;5.20;99.90;;;;;;6274215;22;20509;-75
2022/04/04 07:17:46;;;;;;;21.48;11.63;;;5.20;99.90;;;;;;6274238;22;20030;-74
2022/04/04 07:20:12;;;;;;;25.10;11.15;;;5.20;99.90;;;;;;6274594;22;20035;-75
2022/04/04 07:22:55;;;;;;;23.15;10.40;;;5.30;99.90;;;;;;6251829;22;20324;-74
2022/04/04 07:25:24;;;;;;;23.17;9.68;;;5.30;99.90;;;;;;6249347;22;20038;-74
2022/04/04 07:27:50;;;;;;;19.02;9.95;;;5.30;99.90;;;;;;6274351;22;20062;-74
2022/04/04 07:30:18;;;;;;;20.55;10.05;;;5.40;99.90;;;;;;6274021;22;20346;-75
2022/04/04 07:32:54;;;;;;;22.33;10.55;;;5.40;99.90;;;;;;6273517;22;20030;-75
2022/04/04 07:35:21;;;;;;;22.33;7.68;;;5.40;99.90;;;;;;6250539;22;20011;-76
2022/04/04 07:37:58;;;;;;;26.52;10.35;;;5.50;99.90;;;;;;6276572;22;20019;-75
2022/04/04 07:40:30;;;;;;;17.45;8.88;;;5.50;99.90;;;;;;6250138;22;20030;-75
2022/04/04 07:42:56;;;;;;;20.25;9.38;;;5.50;99.90;;;;;;6224937;22;20482;-74
2022/04/04 07:45:23;;;;;;;15.30;7.82;;;5.50;99.90;;;;;;6273862;22;20023;-75
2022/04/04 07:47:50;;;;;;;21.77;8.55;;;5.60;99.90;;;;;;6248056;22;20099;-74
2022/04/04 07:50:16;;;;;;;18.52;8.82;;;5.60;99.90;;;;;;6273631;22;20024;-75
2022/04/04 07:52:42;;;;;;;19.27;8.70;;;5.60;99.90;;;;;;6247887;22;20214;-75
2022/04/04 07:55:11;;;;;;;17.73;8.20;;;5.60;99.90;;;;;;6247509;22;20031;-75
2022/04/04 07:57:41;;;;;;;14.40;7.53;;;5.70;99.90;;;;;;6273412;22;20076;-75
2022/04/04 08:00:11;;;;;;;19.92;8.75;;;5.60;99.90;;;;;;6273542;22;20030;-75
2022/04/04 08:02:38;;;;;;;19.83;8.25;;;5.70;99.90;;;;;;6222442;22;20020;-74
2022/04/04 08:05:26;;;;;;;23.35;9.73;;;5.70;99.90;;;;;;6273191;22;20027;-75
2022/04/04 08:07:52;;;;;;;24.20;9.32;;;5.70;99.90;;;;;;6247875;22;20028;-75
2022/04/04 08:10:21;;;;;;;12.77;7.63;;;5.70;99.90;;;;;;6273643;22;20521;-75
2022/04/04 08:12:51;;;;;;;18.52;7.20;;;5.70;99.90;;;;;;6248878;22;20022;-76
2022/04/04 08:15:21;;;;;;;15.93;7.03;;;5.70;99.90;;;;;;6249052;22;20023;-76
2022/04/04 08:17:47;;;;;;;21.88;8.20;;;5.70;99.90;;;;;;6248033;22;20026;-76
2022/04/04 08:20:36;;;;;;;15.52;7.03;;;5.80;99.90;;;;;;6253233;22;20406;-75
2022/04/04 08:23:01;;;;;;;18.15;7.38;;;5.80;99.90;;;;;;6248203;22;20460;-75
2022/04/04 08:25:27;;;;;;;12.27;6.07;;;5.80;99.90;;;;;;6247365;22;20030;-76
2022/04/04 08:27:53;;;;;;;14.65;6.40;;;5.80;99.90;;;;;;6275274;22;20024;-76
2022/04/04 08:30:19;;;;;;;21.65;7.35;;;5.80;99.90;;;;;;6273366;22;20020;-74
2022/04/04 08:32:45;;;;;;;13.07;6.40;;;5.80;99.90;;;;;;6273929;22;20024;-75
2022/04/04 08:35:13;;;;;;;15.55;6.78;;;5.90;99.90;;;;;;6273557;22;20098;-75
2022/04/04 08:37:41;;;;;;;14.93;5.95;;;5.90;99.90;;;;;;6273431;22;20027;-75
2022/04/04 08:40:09;;;;;;;17.45;6.90;;;5.90;99.90;;;;;;6273470;22;20031;-76
2022/04/04 08:42:36;;;;;;;16.48;6.55;;;5.90;99.90;;;;;;6273078;22;20030;-75
2022/04/04 08:45:04;;;;;;;14.38;5.43;;;5.90;99.90;;;;;;6273299;22;20024;-75
2022/04/04 08:47:33;;;;;;;12.90;5.25;;;6.00;99.90;;;;;;6247719;22;20028;-76
2022/04/04 08:50:09;;;;;;;15.85;5.75;;;6.00;99.90;;;;;;6249813;22;20104;-77
2022/04/04 08:52:38;;;;;;;12.75;4.53;;;6.00;99.90;;;;;;6247013;22;20035;-76
2022/04/04 08:55:05;;;;;;;13.40;4.70;;;6.00;99.90;;;;;;6248250;22;20062;-76
2022/04/04 08:57:30;;;;;;;15.25;5.47;;;6.00;99.90;;;;;;6247476;22;20411;-76
2022/04/04 08:59:56;;;;;;;9.85;3.72;;;6.10;99.90;;;;;;6272997;22;20023;-75
2022/04/04 09:02:22;;;;;;;15.88;4.43;;;6.10;99.90;;;;;;6247260;22;20030;-75
2022/04/04 09:05:01;;;;;;;10.88;4.45;;;6.10;99.90;;;;;;6272926;22;20051;-76
2022/04/04 09:07:27;;;;;;;11.55;4.18;;;6.10;99.90;;;;;;6224194;22;20020;-75
2022/04/04 09:09:53;;;;;;;11.73;4.53;;;6.10;99.90;;;;;;6272860;22;20474;-75
2022/04/04 09:12:24;;;;;;;14.38;4.85;;;6.10;99.90;;;;;;6273526;22;20059;-74
2022/04/04 09:14:58;;;;;;;10.98;4.00;;;6.20;99.90;;;;;;6247396;22;20016;-76
2022/04/04 09:17:30;;;;;;;14.18;4.55;;;6.20;99.90;;;;;;6247522;22;20094;-75
2022/04/04 09:19:57;;;;;;;14.70;3.70;;;6.20;99.90;;;;;;6272789;22;20367;-75
2022/04/04 09:22:24;;;;;;;13.85;4.63;;;6.20;99.90;;;;;;6246994;22;20030;-76
2022/04/04 09:25:01;;;;;;;9.30;3.78;;;6.20;99.90;;;;;;6272699;22;20024;-76
2022/04/04 09:27:33;;;;;;;14.70;4.68;;;6.30;99.90;;;;;;6272748;22;20034;-76
2022/04/04 09:30:00;;;;;;;12.00;5.22;;;6.30;99.90;;;;;;6272734;22;20131;-76
2022/04/04 09:32:41;;;;;;;11.35;3.95;;;6.30;99.90;;;;;;6247475;22;20067;-77
2022/04/04 09:35:18;;;;;;;19.75;4.95;;;6.40;99.90;;;;;;6275571;22;20020;-76
2022/04/04 09:37:48;;;;;;;12.15;3.58;;;6.40;99.90;;;;;;6272662;22;20451;-76
2022/04/04 09:40:19;;;;;;;13.38;3.85;;;6.40;99.90;;;;;;6274632;22;20023;-77
2022/04/04 09:42:53;;;;;;;13.65;3.25;;;6.50;99.90;;;;;;6272810;22;20540;-77
2022/04/04 09:45:24;;;;;;;13.95;3.85;;;6.50;99.90;;;;;;6274363;22;20463;-77
2022/04/04 09:47:56;;;;;;;12.73;3.42;;;6.50;99.90;;;;;;6247138;22;20463;-78
2022/04/04 09:50:50;;;;;;;12.00;3.50;;;6.50;99.90;;;;;;6271562;22;20063;-77
2022/04/04 09:53:19;;;;;;;11.05;2.50;;;6.50;99.90;;;;;;6271981;22;20130;-77
2022/04/04 09:55:55;;;;;;;12.65;2.88;;;6.50;99.90;;;;;;6272198;22;20071;-76
2022/04/04 09:58:25;;;;;;;11.20;2.30;;;6.60;99.90;;;;;;6246686;22;20027;-77
2022/04/04 10:00:53;;;;;;;10.23;3.60;;;6.60;99.90;;;;;;6197277;22;20015;-76
2022/04/04 10:03:25;;;;;;;10.02;3.08;;;6.60;99.90;;;;;;6272857;22;20471;-77
2022/04/04 10:06:05;;;;;;;15.90;3.60;;;6.60;99.90;;;;;;6198268;22;20095;-74
2022/04/04 10:08:32;;;;;;;7.78;2.78;;;6.70;99.90;;;;;;6272677;22;20226;-75
2022/04/04 10:11:00;;;;;;;13.13;3.53;;;6.70;99.90;;;;;;6247055;22;20031;-76
2022/04/04 10:13:26;;;;;;;7.47;2.65;;;6.70;99.90;;;;;;6272537;22;20024;-77
2022/04/04 10:15:53;;;;;;;7.70;2.55;;;6.70;99.90;;;;;;6247087;22;20094;-77
2022/04/04 10:18:20;;;;;;;16.48;3.78;;;6.70;99.90;;;;;;6273796;22;20034;-77
2022/04/04 10:20:56;;;;;;;7.35;2.55;;;6.70;99.90;;;;;;6272540;22;20023;-77
2022/04/04 10:23:24;;;;;;;6.00;2.33;;;6.70;99.90;;;;;;6272489;22;20107;-77
2022/04/04 10:25:51;;;;;;;8.35;3.13;;;6.70;99.90;;;;;;6274047;22;20133;-76
2022/04/04 10:28:49;;;;;;;11.07;2.60;;;6.70;99.90;;;;;;6247351;22;20605;-76
2022/04/04 10:31:38;;;;;;;7.95;2.30;;;6.80;99.90;;;;;;6220724;22;20098;-76
2022/04/04 10:34:15;;;;;;;10.77;2.70;;;6.80;99.90;;;;;;6274695;22;20030;-76
2022/04/04 10:36:57;;;;;;;8.55;2.40;;;6.90;99.90;;;;;;6274655;22;20086;-77
2022/04/04 10:40:09;;;;;;;7.82;2.35;;;6.90;99.90;;;;;;6275061;22;20034;-76
2022/04/04 10:42:37;;;;;;;10.25;2.40;;;6.90;99.90;;;;;;6275514;22;20406;-76
2022/04/04 10:45:12;;;;;;;9.60;2.30;;;6.90;99.90;;;;;;6275132;22;20094;-75
2022/04/04 10:47:47;;;;;;;10.65;2.70;;;6.90;99.90;;;;;;6274650;22;20081;-76
2022/04/04 10:50:30;;;;;;;9.27;3.08;;;6.90;99.90;;;;;;6249670;22;20074;-75
2022/04/04 10:53:01;;;;;;;8.48;2.20;;;7.00;99.90;;;;;;6248302;22;20351;-75
2022/04/04 10:55:36;;;;;;;7.60;2.10;;;7.00;99.90;;;;;;6224439;22;20031;-75
2022/04/04 10:58:23;;;;;;;11.40;3.33;;;7.00;99.90;;;;;;6248509;22;20019;-76
2022/04/04 11:01:26;;;;;;;6.10;2.38;;;7.00;99.90;;;;;;6274680;22;20023;-76
2022/04/04 11:03:53;;;;;;;7.82;2.72;;;7.10;99.90;;;;;;6156806;23;20138;-76
2022/04/04 11:09:32;;;;;;;8.55;3.13;;;7.10;99.90;;;;;;6178652;23;20388;-76
2022/04/04 11:12:00;;;;;;;7.45;3.22;;;7.10;99.90;;;;;;6132144;23;20057;-76
2022/04/04 11:14:39;;;;;;;10.32;3.17;;;7.20;99.90;;;;;;6181282;23;20021;-76
2022/04/04 11:18:06;;;;;;;16.55;4.05;;;7.20;99.90;;;;;;6179342;23;20069;-76
2022/04/04 11:20:32;;;;;;;9.27;3.70;;;7.20;99.90;;;;;;6156286;23;20192;-74
2022/04/04 11:23:09;;;;;;;10.15;3.97;;;7.30;99.90;;;;;;6156600;23;20412;-73
2022/04/04 11:25:53;;;;;;;9.57;3.42;;;7.30;99.90;;;;;;6156207;23;20021;-74
2022/04/04 11:28:25;;;;;;;10.27;3.63;;;7.30;99.90;;;;;;6158846;23;20140;-74
2022/04/04 11:31:09;;;;;;;7.13;3.58;;;7.40;99.90;;;;;;6133116;23;20022;-74
2022/04/04 11:34:12;;;;;;;10.93;4.10;;;7.40;99.90;;;;;;6159405;23;20091;-75
2022/04/04 11:36:43;;;;;;;10.38;4.07;;;7.40;99.90;;;;;;6160367;22;20028;-76
2022/04/04 11:39:16;;;;;;;11.60;4.65;;;7.50;99.90;;;;;;6275620;22;20066;-75
2022/04/04 11:41:50;;;;;;;10.60;4.43;;;7.50;99.90;;;;;;6274145;22;20019;-74
2022/04/04 11:44:32;;;;;;;8.68;4.40;;;7.50;99.90;;;;;;6248768;22;20030;-74
2022/04/04 11:47:07;;;;;;;9.52;4.78;;;7.50;99.90;;;;;;6223697;22;20055;-74
2022/04/04 11:49:43;;;;;;;8.05;3.95;;;7.60;99.90;;;;;;6248300;22;20028;-75
2022/04/04 11:52:52;;;;;;;9.52;5.38;;;7.60;99.90;;;;;;6274028;22;20015;-75
2022/04/04 11:55:22;;;;;;;11.35;4.72;;;7.60;99.90;;;;;;6273396;22;20026;-75
2022/04/04 11:58:02;;;;;;;13.30;5.65;;;7.70;99.90;;;;;;6247981;22;20028;-75
2022/04/04 12:00:32;;;;;;;12.63;6.18;;;7.70;99.90;;;;;;6248026;22;20073;-75
2022/04/04 12:03:15;;;;;;;16.25;5.90;;;7.70;99.90;;;;;;6273672;22;20032;-76
2022/04/04 12:05:49;;;;;;;10.85;6.13;;;7.80;99.90;;;;;;6273275;22;20016;-76
2022/04/04 12:08:17;;;;;;;10.18;6.05;;;7.80;99.90;;;;;;6223863;22;20022;-74
2022/04/04 12:11:05;;;;;;;15.82;6.82;;;7.80;99.90;;;;;;6245211;22;20062;-75
2022/04/04 12:13:34;;;;;;;15.75;6.22;;;7.80;99.90;;;;;;6273012;22;20016;-75
2022/04/04 12:16:01;;;;;;;16.08;5.68;;;7.90;99.90;;;;;;6272968;22;20028;-75
2022/04/04 12:18:29;;;;;;;17.48;7.25;;;7.90;99.90;;;;;;6274932;22;20094;-77
2022/04/04 12:20:58;;;;;;;15.93;6.40;;;8.00;99.90;;;;;;6273233;22;20070;-76
2022/04/04 12:26:16;;;;;;;17.65;6.72;;;8.00;99.90;;;;;;6251834;22;20103;-74
2022/04/04 12:28:48;;;;;;;20.27;7.60;;;8.00;99.90;;;;;;6273285;22;20031;-74
2022/04/04 12:31:23;;;;;;;17.92;7.20;;;8.10;99.90;;;;;;6274728;22;20035;-74
2022/04/04 12:34:02;;;;;;;27.35;8.90;;;8.10;99.90;;;;;;6273305;22;20048;-75
2022/04/04 12:36:31;;;;;;;26.42;8.05;;;8.10;99.90;;;;;;6273615;22;20027;-73
2022/04/04 12:39:01;;;;;;;28.10;8.25;;;8.10;99.90;;;;;;6272867;22;20027;-73
2022/04/04 12:41:27;;;;;;;21.70;8.23;;;8.10;99.90;;;;;;6273008;22;20028;-74
2022/04/04 12:44:02;;;;;;;31.30;8.85;;;8.10;99.90;;;;;;6222381;22;20024;-75
2022/04/04 12:46:33;;;;;;;29.27;8.98;;;8.20;99.90;;;;;;6273635;22;20026;-76
2022/04/04 12:49:31;;;;;;;24.88;9.10;;;8.20;99.90;;;;;;6274742;22;20097;-76
2022/04/04 12:52:08;;;;;;;21.55;7.22;;;8.20;99.90;;;;;;6213866;23;20111;-77
2022/04/04 12:54:36;;;;;;;28.80;7.53;;;8.30;99.90;;;;;;6215691;23;20078;-78
2022/04/04 12:57:07;;;;;;;22.25;7.05;;;8.30;99.90;;;;;;6240829;23;20345;-78
2022/04/04 12:59:54;;;;;;;21.25;6.47;;;8.30;99.90;;;;;;6215778;23;20467;-78
2022/04/04 13:02:40;;;;;;;19.48;6.95;;;8.30;99.90;;;;;;6215207;23;20111;-78
2022/04/04 13:05:18;;;;;;;23.58;6.70;;;8.30;99.90;;;;;;6214794;23;20026;-78
2022/04/04 13:07:53;;;;;;;26.23;7.60;;;8.30;99.90;;;;;;6190681;23;20024;-76
2022/04/04 13:10:23;;;;;;;23.27;6.65;;;8.30;99.90;;;;;;6190344;23;20024;-77